Bloomville, Wisconsin
Current Conditions -  °F | °C
As of 1:35 PM on Thursday 23 Oct 2014 (Local Time) from KRRL Reporting Station
Moderate Rain Moderate Rain  
Wind Chill: 44°   Ceiling: 700
Heat Index: 44°   Visibility: 4mi
Dew Point: 44°   Wind: 3mph
Humidity: 99%   Direction: 170°S
Pressure: 30.04"   Gusts: NA
Location:  45.3595°N, 89.45°W
Report Text: KRRL 231835Z AUTO 17003KT 4SM RA OVC007 07/07 A3004 RMK AO2 T00660065
Loading
Personal Weather Stations






























Interactive Weather Map
Tropical Storm Tracking
New forecast layout! Learn more

10-Day Weather Forecast

Advertisements
Track Severe Weather on mobile